Time;durP1;ratioP1;P1;durP2;ratioP2;P2;SDS_P1;SDS_P2;PMS_P1;PMS_P2;Temp;Humidity;BMP_temperature;BMP_pressure;BME280_temperature;BME280_humidity;BME280_pressure;Samples;Min_cycle;Max_cycle;Signal;HPM_P1;HPM_P2
2022/05/11 00:00:49;;;;;;;14.28;6.28;;;;;;;7.38;93.57;100919.48;1804729;79;21029;-62
2022/05/11 00:03:16;;;;;;;15.20;6.60;;;;;;;7.53;93.31;100923.83;1804660;79;21574;-62
2022/05/11 00:05:43;;;;;;;17.75;6.47;;;;;;;7.39;93.81;100913.47;1804684;79;21099;-61
2022/05/11 00:08:12;;;;;;;13.60;6.42;;;;;;;7.27;94.24;100923.18;1804297;79;21523;-61
2022/05/11 00:10:39;;;;;;;12.43;6.20;;;;;;;7.24;94.72;100920.27;1804426;79;21570;-62
2022/05/11 00:13:06;;;;;;;11.25;5.70;;;;;;;7.16;95.18;100923.00;1804417;79;21081;-62
2022/05/11 00:15:34;;;;;;;13.72;6.10;;;;;;;7.18;95.10;100921.69;1804338;79;21042;-61
2022/05/11 00:18:02;;;;;;;11.57;5.72;;;;;;;7.14;95.67;100923.91;1804701;79;21038;-61
2022/05/11 00:20:30;;;;;;;13.40;6.03;;;;;;;7.09;97.10;100925.73;1804652;79;20987;-62
2022/05/11 00:23:00;;;;;;;13.25;5.75;;;;;;;6.99;98.06;100925.92;1804411;79;21085;-61
2022/05/11 00:25:28;;;;;;;13.08;5.80;;;;;;;7.06;98.19;100928.37;1804642;79;21511;-62
2022/05/11 00:27:58;;;;;;;10.35;5.08;;;;;;;6.99;97.71;100927.64;1804679;79;21010;-61
2022/05/11 00:30:27;;;;;;;12.45;5.72;;;;;;;6.97;96.45;100921.27;1804564;79;21507;-61
2022/05/11 00:32:58;;;;;;;12.60;5.50;;;;;;;6.98;96.88;100922.97;1804497;79;21003;-62
2022/05/11 00:35:28;;;;;;;11.45;5.50;;;;;;;6.78;97.06;100920.02;1802924;79;21062;-62
2022/05/11 00:37:56;;;;;;;14.20;5.15;;;;;;;6.78;97.62;100927.69;1790234;80;21035;-62
2022/05/11 00:40:25;;;;;;;11.70;5.33;;;;;;;6.75;97.47;100922.63;1790455;79;21083;-61
2022/05/11 00:42:53;;;;;;;11.48;5.55;;;;;;;6.65;97.72;100921.14;1790215;80;21094;-61
2022/05/11 00:45:20;;;;;;;10.53;5.45;;;;;;;6.57;97.83;100922.16;1790161;79;21023;-61
2022/05/11 00:49:33;;;;;;;12.73;5.60;;;;;;;6.68;96.17;100921.09;1790376;80;21094;-61
2022/05/11 00:50:34;;;;;;;10.70;4.83;;;;;;;6.63;95.09;100921.20;1786040;79;21067;-60
2022/05/11 00:53:11;;;;;;;11.55;5.40;;;;;;;6.53;95.29;100918.39;1790477;80;21082;-60
2022/05/11 00:55:46;;;;;;;12.58;5.30;;;;;;;6.54;95.94;100918.37;1790172;80;21038;-60
2022/05/11 00:58:21;;;;;;;9.83;5.25;;;;;;;6.27;98.34;100922.78;1790420;80;21015;-60
2022/05/11 01:00:49;;;;;;;10.35;4.70;;;;;;;6.14;99.33;100920.47;1790149;80;21034;-60
2022/05/11 01:03:20;;;;;;;8.05;4.83;;;;;;;6.14;99.33;100920.47;1790343;80;21007;-60
2022/05/11 01:05:48;;;;;;;12.45;5.15;;;;;;;6.13;100.00;100923.88;1790487;80;21023;-60
2022/05/11 01:08:18;;;;;;;14.00;5.00;;;;;;;6.13;100.00;100923.88;1790240;80;21071;-60
2022/05/11 01:10:46;;;;;;;11.90;5.12;;;;;;;6.04;100.00;100916.38;1790164;80;21059;-60
2022/05/11 01:13:16;;;;;;;10.65;5.47;;;;;;;6.04;100.00;100916.38;1790129;80;21496;-60
2022/05/11 01:15:48;;;;;;;8.55;4.50;;;;;;;6.02;100.00;100915.56;1790263;80;21062;-60
2022/05/11 01:18:19;;;;;;;11.03;5.03;;;;;;;5.99;100.00;100913.08;1790149;80;20992;-60
2022/05/11 01:20:46;;;;;;;16.30;5.15;;;;;;;5.99;100.00;100916.91;1790423;80;20975;-60
2022/05/11 01:23:37;;;;;;;10.68;4.97;;;;;;;5.88;100.00;100914.94;1790147;79;21070;-60
2022/05/11 01:26:04;;;;;;;8.73;5.03;;;;;;;5.80;100.00;100912.10;1790320;80;21070;-60
2022/05/11 01:28:32;;;;;;;10.88;5.05;;;;;;;5.77;100.00;100910.86;1790885;80;21030;-61
2022/05/11 01:31:09;;;;;;;8.53;5.33;;;;;;;5.78;100.00;100904.91;1790316;80;20983;-61
2022/05/11 01:33:40;;;;;;;10.20;5.08;;;;;;;5.73;100.00;100907.95;1790592;79;20983;-61
2022/05/11 01:36:34;;;;;;;10.25;4.80;;;;;;;5.75;100.00;100907.50;1790582;79;21082;-61
2022/05/11 01:39:06;;;;;;;14.38;5.00;;;;;;;5.75;100.00;100901.55;1790645;80;21015;-62
2022/05/11 01:41:38;;;;;;;10.10;5.05;;;;;;;5.71;100.00;100903.31;1790022;80;21046;-61
2022/05/11 01:44:13;;;;;;;9.65;5.05;;;;;;;5.62;100.00;100903.49;1790397;80;21035;-61
2022/05/11 01:46:48;;;;;;;10.00;4.90;;;;;;;5.53;100.00;100902.36;1790156;80;21042;-61
2022/05/11 01:49:15;;;;;;;;;;;;;;;5.46;100.00;100897.80;1793147;80;21015;-61
2022/05/11 01:51:42;;;;;;;8.65;5.00;;;;;;;5.44;100.00;100903.36;1790719;80;20103;-61
2022/05/11 01:54:10;;;;;;;11.48;5.00;;;;;;;5.45;100.00;100901.64;1790363;80;21004;-62
2022/05/11 01:56:37;;;;;;;10.55;5.60;;;;;;;5.45;100.00;100900.37;1790388;80;21046;-62
2022/05/11 01:59:06;;;;;;;12.68;5.17;;;;;;;5.41;100.00;100898.29;1790342;80;21468;-61
2022/05/11 02:01:35;;;;;;;12.28;5.28;;;;;;;5.40;100.00;100897.89;1790965;80;21011;-62
2022/05/11 02:04:02;;;;;;;10.35;5.33;;;;;;;5.36;100.00;100899.65;1790548;80;21015;-61
2022/05/11 02:09:13;;;;;;;11.15;4.62;;;;;;;5.01;100.00;100901.05;1730052;80;21529;-60
2022/05/11 02:11:40;;;;;;;11.20;5.10;;;;;;;5.01;100.00;100905.31;1790827;79;21515;-61
2022/05/11 02:14:08;;;;;;;9.15;4.40;;;;;;;4.95;100.00;100900.30;1790425;80;21074;-60
2022/05/11 02:16:36;;;;;;;9.40;4.65;;;;;;;4.95;100.00;100897.31;1790686;80;21019;-61
2022/05/11 02:19:04;;;;;;;11.10;4.72;;;;;;;5.13;100.00;100897.88;1790502;80;21562;-61
2022/05/11 02:21:31;;;;;;;9.18;4.62;;;;;;;4.99;100.00;100893.84;1790347;80;21035;-60
2022/05/11 02:23:58;;;;;;;8.85;4.37;;;;;;;4.95;100.00;100894.76;1790611;80;21011;-61
2022/05/11 02:26:25;;;;;;;10.28;5.20;;;;;;;5.01;100.00;100897.22;1790449;79;21030;-61
2022/05/11 02:28:54;;;;;;;10.45;4.50;;;;;;;5.01;100.00;100888.29;1790476;80;21037;-61
2022/05/11 02:31:21;;;;;;;8.98;4.53;;;;;;;5.00;100.00;100887.03;1790373;79;21050;-61
2022/05/11 02:33:48;;;;;;;8.60;5.10;;;;;;;5.00;100.00;100887.86;1790356;80;21042;-60
2022/05/11 02:36:16;;;;;;;8.88;4.80;;;;;;;4.96;100.00;100886.22;1790466;79;21023;-60
2022/05/11 02:38:43;;;;;;;7.50;4.55;;;;;;;5.06;100.00;100887.38;1790384;80;21488;-61
2022/05/11 02:41:11;;;;;;;9.53;4.55;;;;;;;4.98;100.00;100886.20;1790210;80;21034;-61
2022/05/11 02:43:39;;;;;;;9.30;4.47;;;;;;;5.04;100.00;100885.28;1790300;80;21007;-60
2022/05/11 02:46:06;;;;;;;8.98;5.20;;;;;;;5.00;100.00;100887.03;1790204;80;21047;-60
2022/05/11 02:48:34;;;;;;;9.93;4.75;;;;;;;5.04;100.00;100891.22;1790467;80;21034;-60
2022/05/11 02:51:03;;;;;;;11.53;5.35;;;;;;;5.07;100.00;100891.19;1790200;80;21064;-61
2022/05/11 02:53:32;;;;;;;11.48;5.33;;;;;;;5.08;100.00;100892.02;1790417;80;20987;-61
2022/05/11 02:56:00;;;;;;;13.32;5.45;;;;;;;5.12;100.00;100895.77;1790265;79;21071;-61
2022/05/11 02:58:32;;;;;;;9.65;5.03;;;;;;;5.15;100.00;100894.87;1790117;80;21070;-61
2022/05/11 03:01:02;;;;;;;10.82;5.78;;;;;;;5.14;100.00;100895.75;1790325;79;21007;-61
2022/05/11 03:03:33;;;;;;;10.08;5.12;;;;;;;5.23;100.00;100896.88;1790443;80;21035;-61
2022/05/11 03:05:58;;;;;;;12.13;5.40;;;;;;;5.38;100.00;100895.36;1789974;80;21050;-61
2022/05/11 03:08:25;;;;;;;10.68;4.85;;;;;;;5.42;100.00;100899.99;1790210;80;21027;-61
2022/05/11 03:10:53;;;;;;;9.80;4.25;;;;;;;5.40;100.00;100898.73;1790086;80;21063;-60
2022/05/11 03:13:21;;;;;;;8.60;4.72;;;;;;;5.45;100.00;100895.26;1790171;80;21082;-61
2022/05/11 03:15:48;;;;;;;9.13;4.50;;;;;;;5.53;100.00;100899.80;1790425;79;21062;-61
2022/05/11 03:18:15;;;;;;;9.53;4.70;;;;;;;5.61;100.00;100900.52;1790522;80;21555;-61
2022/05/11 03:20:42;;;;;;;7.35;4.03;;;;;;;5.70;100.00;100905.48;1761626;79;21047;-61
2022/05/11 03:23:10;;;;;;;9.15;4.12;;;;;;;5.72;100.00;100903.73;1790349;80;21035;-61
2022/05/11 03:25:38;;;;;;;7.78;3.85;;;;;;;5.99;100.00;100901.58;1790214;80;21023;-61
2022/05/11 03:28:05;;;;;;;11.18;4.47;;;;;;;6.10;100.00;100900.09;1790216;80;21039;-61
2022/05/11 03:30:33;;;;;;;10.25;4.58;;;;;;;6.04;100.00;100906.15;1790146;80;21031;-61
2022/05/11 03:35:47;;;;;;;7.28;4.28;;;;;;;6.17;99.37;100906.33;1790439;80;21089;-61
2022/05/11 03:38:14;;;;;;;10.08;4.90;;;;;;;6.30;98.38;100907.37;1804017;79;21519;-61
2022/05/11 03:40:41;;;;;;;12.73;4.90;;;;;;;6.55;97.93;100911.53;1804475;79;21002;-61
2022/05/11 03:43:10;;;;;;;14.55;5.20;;;;;;;6.62;95.93;100907.54;1804456;79;21046;-61
2022/05/11 03:45:37;;;;;;;11.45;5.53;;;;;;;6.74;95.63;100910.72;1804656;79;21025;-61
2022/05/11 03:48:07;;;;;;;11.78;5.95;;;;;;;6.98;93.33;100908.89;1804443;79;21104;-60
2022/05/11 03:50:34;;;;;;;13.50;5.35;;;;;;;6.98;93.33;100908.89;1804539;79;21011;-60
2022/05/11 03:53:01;;;;;;;14.95;6.30;;;;;;;7.09;93.68;100913.76;1804427;79;21070;-60
2022/05/11 03:55:28;;;;;;;10.82;5.53;;;;;;;7.25;92.88;100912.97;1804693;79;21101;-60
2022/05/11 03:57:55;;;;;;;11.08;5.58;;;;;;;7.45;91.56;100911.66;1804436;78;20998;-60
2022/05/11 04:00:24;;;;;;;10.70;5.62;;;;;;;7.73;90.03;100916.48;1804652;78;21042;-61
2022/05/11 04:02:55;;;;;;;13.83;6.00;;;;;;;7.92;88.99;100918.56;1804344;79;21085;-60
2022/05/11 04:05:23;;;;;;;11.65;5.60;;;;;;;8.03;88.35;100921.70;1804599;79;21026;-61
2022/05/11 04:07:51;;;;;;;12.98;5.42;;;;;;;8.07;88.65;100920.73;1804600;79;21038;-60
2022/05/11 04:10:19;;;;;;;12.85;5.72;;;;;;;8.23;88.74;100921.13;1804404;79;21141;-61
2022/05/11 04:12:47;;;;;;;16.05;6.17;;;;;;;8.36;88.09;100915.23;1804630;79;21026;-62
2022/05/11 04:15:16;;;;;;;13.13;5.87;;;;;;;8.55;87.23;100921.53;1804325;79;21061;-60
2022/05/11 04:17:45;;;;;;;16.85;5.53;;;;;;;8.73;84.38;100913.73;1804594;78;21023;-60
2022/05/11 04:20:18;;;;;;;12.40;5.50;;;;;;;8.77;84.15;100918.34;1804473;79;21499;-61
2022/05/11 04:22:47;;;;;;;13.05;5.83;;;;;;;8.92;83.95;100910.19;1804876;79;21011;-61
2022/05/11 04:25:16;;;;;;;14.73;5.33;;;;;;;9.10;81.87;100912.59;1804650;79;21515;-61
2022/05/11 04:27:48;;;;;;;11.50;5.28;;;;;;;9.26;81.06;100911.67;1804700;79;21025;-61
2022/05/11 04:30:18;;;;;;;12.37;5.25;;;;;;;9.48;80.46;100910.98;1804769;79;21065;-61
2022/05/11 04:32:45;;;;;;;13.85;5.40;;;;;;;9.66;79.38;100909.08;1804687;79;21050;-62
2022/05/11 04:35:12;;;;;;;16.50;5.42;;;;;;;9.80;78.53;100912.47;1804516;79;21515;-61
2022/05/11 04:37:39;;;;;;;9.50;5.00;;;;;;;10.11;78.37;100910.11;1808002;79;21081;-61
2022/05/11 04:40:10;;;;;;;13.58;5.53;;;;;;;10.21;78.61;100912.29;1810444;79;21036;-62
2022/05/11 04:42:38;;;;;;;12.15;4.80;;;;;;;10.42;78.27;100908.56;1810812;79;21513;-61
2022/05/11 04:45:06;;;;;;;12.05;4.80;;;;;;;10.75;76.87;100908.22;1810645;79;21004;-63
2022/05/11 04:47:35;;;;;;;10.15;4.72;;;;;;;10.94;76.28;100913.03;1810392;79;21034;-61
2022/05/11 04:50:03;;;;;;;11.60;4.47;;;;;;;11.22;75.19;100901.64;1810329;79;21117;-61
2022/05/11 04:52:31;;;;;;;10.45;4.90;;;;;;;11.51;73.90;100908.63;1810517;79;21498;-60
2022/05/11 04:54:58;;;;;;;11.30;4.85;;;;;;;11.74;71.98;100912.80;1810353;79;21030;-61
2022/05/11 04:57:25;;;;;;;10.88;5.30;;;;;;;12.12;70.47;100909.89;1810600;79;21038;-61
2022/05/11 04:59:53;;;;;;;12.65;5.72;;;;;;;12.42;69.24;100910.73;1800696;79;21038;-61
2022/05/11 05:02:23;;;;;;;14.90;5.58;;;;;;;12.69;68.16;100905.20;1805099;79;20967;-61
2022/05/11 05:04:52;;;;;;;15.53;6.30;;;;;;;13.21;66.37;100912.59;1781059;79;21048;-61
2022/05/11 05:07:19;;;;;;;15.80;6.87;;;;;;;13.48;65.30;100909.59;1798791;79;21007;-61
2022/05/11 05:09:47;;;;;;;19.67;7.08;;;;;;;13.60;61.81;100906.42;1797617;79;21541;-61
2022/05/11 05:12:14;;;;;;;17.07;6.92;;;;;;;13.88;61.58;100896.41;1799718;79;21041;-61
2022/05/11 05:14:44;;;;;;;15.08;5.92;;;;;;;14.05;56.26;100905.44;1798206;79;21007;-61
2022/05/11 05:17:13;;;;;;;17.45;6.70;;;;;;;14.22;52.11;100905.37;1760010;81;21047;-61
2022/05/11 05:19:43;;;;;;;27.60;9.60;;;;;;;14.47;51.01;100896.28;1764185;81;21039;-61
2022/05/11 05:22:10;;;;;;;18.45;6.60;;;;;;;14.83;51.56;100901.70;1764258;81;21070;-61
2022/05/11 05:24:37;;;;;;;13.50;5.92;;;;;;;14.99;49.91;100901.69;1764313;81;21198;-61
2022/05/11 05:27:06;;;;;;;16.55;5.83;;;;;;;15.16;48.61;100899.42;1764352;81;21487;-62
2022/05/11 05:32:20;;;;;;;13.32;5.20;;;;;;;15.28;44.77;100901.78;1764042;81;21082;-61
2022/05/11 05:34:48;;;;;;;14.80;5.90;;;;;;;15.47;45.38;100906.73;1764095;81;21081;-62
2022/05/11 05:37:18;;;;;;;12.00;6.00;;;;;;;15.91;45.32;100895.05;1762775;81;21574;-61
2022/05/11 05:39:46;;;;;;;14.53;5.92;;;;;;;15.96;44.31;100906.00;1761136;81;21043;-62
2022/05/11 05:42:22;;;;;;;15.55;6.53;;;;;;;16.06;43.30;100906.72;1761147;81;21066;-62
2022/05/11 05:44:49;;;;;;;13.72;5.30;;;;;;;16.11;43.91;100906.82;1761057;81;21574;-62
2022/05/11 05:47:16;;;;;;;6.37;3.08;;;;;;;16.08;43.96;100920.02;1761297;81;21531;-62
2022/05/11 05:49:45;;;;;;;5.47;2.20;;;;;;;15.81;43.04;100912.95;1760792;81;21496;-62
2022/05/11 05:52:22;;;;;;;6.40;2.20;;;;;;;15.84;42.87;100911.93;1761089;81;21010;-63
2022/05/11 05:54:51;;;;;;;4.83;2.42;;;;;;;16.17;42.57;100916.84;1760849;81;21042;-62
2022/05/11 05:57:19;;;;;;;5.25;1.90;;;;;;;15.88;41.60;100925.10;1761049;81;21050;-63
2022/05/11 05:59:47;;;;;;;3.08;2.10;;;;;;;15.79;43.02;100918.70;1760859;81;21050;-62
2022/05/11 06:02:16;;;;;;;4.00;1.80;;;;;;;16.18;42.74;100918.52;1760873;81;21050;-62
2022/05/11 06:04:49;;;;;;;4.20;1.75;;;;;;;16.03;42.87;100925.93;1761164;81;21026;-62
2022/05/11 06:07:19;;;;;;;8.10;2.00;;;;;;;15.88;42.63;100929.00;1755636;81;21003;-63
2022/05/11 06:09:46;;;;;;;3.55;1.90;;;;;;;15.97;42.38;100918.52;1771825;79;21086;-62
2022/05/11 06:12:15;;;;;;;5.05;1.98;;;;;;;16.09;43.10;100915.64;1771641;80;21011;-62
2022/05/11 06:14:43;;;;;;;3.65;1.85;;;;;;;16.37;43.20;100914.79;1764378;81;20999;-63
2022/05/11 06:17:23;;;;;;;4.20;1.72;;;;;;;16.51;42.89;100919.13;1773316;80;20955;-63
2022/05/11 06:19:52;;;;;;;6.12;2.00;;;;;;;16.53;42.32;100924.59;1752357;81;21005;-61
2022/05/11 06:22:25;;;;;;;4.85;1.75;;;;;;;16.68;41.80;100927.16;1759855;81;21018;-63
2022/05/11 06:24:50;;;;;;;4.22;1.95;;;;;;;16.42;41.44;100920.52;1781195;79;21034;-61
2022/05/11 06:27:21;;;;;;;6.05;1.90;;;;;;;16.73;42.26;100916.84;1775952;80;21006;-61
2022/05/11 06:29:58;;;;;;;8.78;2.45;;;;;;;16.81;42.23;100915.10;1792631;80;21018;-61
2022/05/11 06:32:27;;;;;;;5.42;2.00;;;;;;;16.66;41.81;100923.83;1792437;80;21462;-61
2022/05/11 06:34:55;;;;;;;11.12;2.33;;;;;;;16.52;42.27;100924.69;1786220;80;21488;-62
2022/05/11 06:37:24;;;;;;;3.92;2.05;;;;;;;16.59;42.47;100925.52;1791273;80;21109;-62
2022/05/11 06:39:52;;;;;;;7.33;2.17;;;;;;;16.73;42.43;100914.72;1770042;80;21025;-61
2022/05/11 06:42:21;;;;;;;5.30;1.90;;;;;;;16.80;42.22;100929.81;1763604;81;21041;-61
2022/05/11 06:44:49;;;;;;;12.85;2.33;;;;;;;16.67;42.55;100923.73;1761540;81;21482;-61
2022/05/11 06:47:17;;;;;;;5.70;1.90;;;;;;;16.94;43.02;100923.77;1767084;80;21087;-61
2022/05/11 06:49:45;;;;;;;5.12;1.90;;;;;;;16.66;42.36;100923.35;1761691;81;21054;-62
2022/05/11 06:52:12;;;;;;;5.78;1.87;;;;;;;16.46;42.96;100924.59;1778579;81;21094;-61
2022/05/11 07:00:12;;;;;;;5.33;2.00;;;;;;;16.55;43.56;100913.64;1778480;81;21079;-61
2022/05/11 07:02:39;;;;;;;4.03;2.17;;;;;;;16.45;43.50;100904.75;1778323;81;21589;-61
2022/05/11 07:05:08;;;;;;;6.85;2.37;;;;;;;16.58;44.06;100912.13;1778871;81;21118;-62
2022/05/11 07:07:36;;;;;;;3.77;1.85;;;;;;;16.50;43.62;100896.66;1778569;81;21099;-62
2022/05/11 07:10:06;;;;;;;6.50;2.52;;;;;;;16.88;44.70;100896.86;1778302;81;21068;-62
2022/05/11 07:12:35;;;;;;;7.62;2.27;;;;;;;16.66;43.40;100891.34;1778615;81;21067;-61
2022/05/11 07:15:06;;;;;;;4.10;2.17;;;;;;;16.77;43.60;100887.59;1778388;81;21075;-62
2022/05/11 07:17:48;;;;;;;4.67;2.10;;;;;;;16.71;43.79;100890.12;1778588;81;21103;-61
2022/05/11 07:20:20;;;;;;;3.60;2.42;;;;;;;16.98;43.50;100886.23;1778550;81;21066;-61
2022/05/11 07:22:48;;;;;;;4.70;2.30;;;;;;;16.85;43.38;100889.27;1778536;81;21039;-61
2022/05/11 07:25:18;;;;;;;2.95;2.08;;;;;;;16.60;43.33;100881.68;1778451;81;21011;-61
2022/05/11 07:27:46;;;;;;;6.78;2.08;;;;;;;16.81;43.73;100872.20;1778483;81;21077;-61
2022/05/11 07:30:19;;;;;;;4.78;2.30;;;;;;;17.09;44.36;100876.89;1778280;81;21023;-61
2022/05/11 07:32:47;;;;;;;5.53;2.12;;;;;;;16.80;43.41;100879.11;1778661;81;21102;-61
2022/05/11 07:35:14;;;;;;;6.60;2.17;;;;;;;17.06;41.89;100881.83;1778502;81;21039;-60
2022/05/11 07:37:46;;;;;;;5.15;2.45;;;;;;;16.99;39.99;100879.25;1773440;81;21567;-61
2022/05/11 07:40:13;;;;;;;4.05;2.15;;;;;;;16.98;41.22;100884.92;1811230;79;21017;-61
2022/05/11 07:42:40;;;;;;;5.78;2.55;;;;;;;16.86;39.91;100879.70;1811283;79;21049;-61
2022/05/11 07:45:08;;;;;;;5.55;2.08;;;;;;;17.09;39.76;100872.55;1811205;78;21580;-62
2022/05/11 07:47:35;;;;;;;5.10;2.10;;;;;;;17.13;39.68;100880.95;1811343;79;21564;-61
2022/05/11 07:50:03;;;;;;;4.55;2.20;;;;;;;17.34;38.57;100873.05;1811317;79;21092;-63
2022/05/11 07:52:30;;;;;;;4.53;2.25;;;;;;;17.39;39.04;100871.42;1811312;79;21557;-62
2022/05/11 07:54:58;;;;;;;7.17;2.40;;;;;;;17.42;37.60;100871.23;1811470;78;21056;-62
2022/05/11 08:00:12;;;;;;;3.62;2.17;;;;;;;17.17;40.25;100879.38;1811477;79;21131;-61
2022/05/11 08:02:40;;;;;;;4.72;2.22;;;;;;;17.27;39.66;100870.47;1811400;78;21095;-62
2022/05/11 08:05:12;;;;;;;6.67;2.50;;;;;;;17.47;40.58;100856.61;1811153;78;21037;-62
2022/05/11 08:07:57;;;;;;;4.90;2.40;;;;;;;17.61;39.45;100846.91;1811207;78;21033;-63
2022/05/11 08:10:35;;;;;;;4.15;2.10;;;;;;;17.61;39.16;100853.89;1811222;79;21110;-62
2022/05/11 08:13:06;;;;;;;10.18;2.58;;;;;;;17.45;38.42;100852.80;1810885;78;21061;-62
2022/05/11 08:15:34;;;;;;;6.20;2.25;;;;;;;17.50;38.36;100851.17;1811299;79;21121;-61
2022/05/11 08:18:02;;;;;;;5.53;2.30;;;;;;;17.59;38.97;100828.44;1811358;79;20981;-61
2022/05/11 08:20:34;;;;;;;6.17;2.42;;;;;;;17.63;40.24;100844.21;1811130;79;21046;-63
2022/05/11 08:23:04;;;;;;;5.12;2.45;;;;;;;17.80;39.33;100839.13;1810743;78;21732;-62
2022/05/11 08:25:35;;;;;;;4.47;2.37;;;;;;;17.90;39.42;100836.77;1786735;79;21041;-62
2022/05/11 08:28:04;;;;;;;5.70;2.20;;;;;;;17.57;38.15;100835.52;1811379;78;20961;-61
2022/05/11 08:33:26;;;;;;;4.30;2.60;;;;;;;17.87;39.03;100826.09;1811425;79;21061;-62
2022/05/11 08:36:00;;;;;;;5.03;2.72;;;;;;;17.72;38.86;100823.20;1811278;79;21015;-62
2022/05/11 08:38:32;;;;;;;5.67;2.42;;;;;;;17.76;38.75;100822.06;1809407;78;21099;-61
2022/05/11 08:41:06;;;;;;;6.08;2.27;;;;;;;17.89;39.28;100830.73;1808766;79;21034;-62
2022/05/11 08:43:35;;;;;;;4.15;2.50;;;;;;;17.94;38.57;100823.89;1808906;79;21021;-62
2022/05/11 08:46:35;;;;;;;4.58;2.50;;;;;;;18.17;37.79;100819.20;1809356;79;21037;-62
2022/05/11 08:49:09;;;;;;;4.55;2.20;;;;;;;18.07;38.09;100817.37;1809834;79;21514;-62
2022/05/11 08:51:57;;;;;;;6.72;2.20;;;;;;;18.15;38.23;100804.62;1808368;79;20991;-63
2022/05/11 08:54:50;;;;;;;4.40;2.20;;;;;;;18.16;38.41;100803.19;1809360;79;21045;-62
2022/05/11 08:57:25;;;;;;;5.87;2.30;;;;;;;18.41;37.86;100806.19;1784748;79;21061;-61
2022/05/11 09:00:00;;;;;;;4.50;2.25;;;;;;;18.36;37.88;100803.55;1809455;79;21005;-62
2022/05/11 09:02:50;;;;;;;6.47;2.20;;;;;;;18.38;37.92;100798.58;1784663;79;21010;-62
2022/05/11 09:05:23;;;;;;;4.62;2.30;;;;;;;18.30;37.60;100791.78;1809495;78;21017;-63
2022/05/11 09:07:53;;;;;;;8.65;2.70;;;;;;;18.16;38.18;100801.89;1809446;79;21069;-62
2022/05/11 09:10:29;;;;;;;5.53;2.72;;;;;;;18.24;38.26;100801.83;1809433;79;21069;-61
2022/05/11 09:13:02;;;;;;;6.12;2.90;;;;;;;18.42;38.89;100788.77;1809519;78;21066;-62
2022/05/11 09:15:56;;;;;;;11.12;3.50;;;;;;;18.26;38.71;100793.42;1809172;79;21493;-62
2022/05/11 09:18:34;;;;;;;4.53;3.10;;;;;;;18.25;38.94;100782.18;1809470;79;21526;-61
2022/05/11 09:21:07;;;;;;;9.68;3.05;;;;;;;18.40;40.42;100783.66;1809795;79;21009;-61
2022/05/11 09:23:38;;;;;;;10.45;3.30;;;;;;;18.31;38.89;100796.07;1808313;79;21033;-61
2022/05/11 09:26:14;;;;;;;7.20;3.40;;;;;;;18.30;39.40;100794.39;1809856;79;20990;-62
2022/05/11 09:28:45;;;;;;;6.25;2.72;;;;;;;18.22;38.64;100784.98;1809460;79;21085;-62
2022/05/11 09:31:25;;;;;;;6.75;2.50;;;;;;;18.22;38.95;100784.98;1809622;79;20994;-61
2022/05/11 09:34:08;;;;;;;7.60;2.75;;;;;;;18.52;38.06;100781.11;1809629;79;21060;-61
2022/05/11 09:36:38;;;;;;;5.90;2.55;;;;;;;18.58;38.36;100768.45;1809784;79;21010;-61
2022/05/11 09:39:15;;;;;;;7.37;2.85;;;;;;;18.65;38.41;100779.25;1823157;78;21014;-61
2022/05/11 09:41:49;;;;;;;4.95;2.80;;;;;;;18.87;38.86;100776.40;1831322;78;20993;-62
2022/05/11 09:44:27;;;;;;;6.55;3.83;;;;;;;19.16;39.88;100785.48;1831049;78;21025;-61
2022/05/11 09:46:56;;;;;;;10.05;4.10;;;;;;;19.10;39.77;100789.01;1831347;78;21022;-61
2022/05/11 09:49:27;;;;;;;9.48;3.87;;;;;;;19.19;40.98;100774.80;1831259;78;20971;-61
2022/05/11 09:51:57;;;;;;;11.78;4.28;;;;;;;19.10;39.62;100772.05;1831554;78;21023;-62
2022/05/11 09:54:48;;;;;;;6.33;3.80;;;;;;;19.09;39.93;100786.88;1831481;78;21057;-60
2022/05/11 09:57:28;;;;;;;8.48;4.00;;;;;;;19.09;40.31;100784.75;1831339;78;20986;-60
2022/05/11 10:00:26;;;;;;;10.40;3.65;;;;;;;19.21;38.79;100789.86;1831438;78;21057;-61
2022/05/11 10:02:58;;;;;;;8.15;3.60;;;;;;;19.44;39.10;100785.97;1831412;78;21038;-61
2022/05/11 10:05:33;;;;;;;9.60;3.77;;;;;;;19.20;39.14;100775.62;1831509;78;21514;-61
2022/05/11 10:08:11;;;;;;;5.47;3.40;;;;;;;19.24;38.49;100775.73;1831459;78;20997;-61
2022/05/11 10:10:46;;;;;;;7.95;3.58;;;;;;;19.59;39.67;100782.66;1831094;78;21066;-62
2022/05/11 10:13:30;;;;;;;6.42;3.27;;;;;;;19.43;37.89;100775.66;1831431;78;20983;-61
2022/05/11 10:22:08;;;;;;;7.15;3.12;;;;;;;19.44;38.78;100769.48;1831073;78;21538;-61
2022/05/11 10:25:12;;;;;;;7.75;2.87;;;;;;;19.40;39.62;100772.34;1831334;78;21072;-61
2022/05/11 10:27:47;;;;;;;8.33;3.00;;;;;;;19.60;39.23;100775.17;1831471;78;21424;-60
2022/05/11 10:30:25;;;;;;;5.20;2.83;;;;;;;19.50;40.38;100755.95;1831311;78;21498;-61
2022/05/11 10:33:28;;;;;;;5.17;3.00;;;;;;;19.56;39.02;100769.83;1831187;78;21021;-61
2022/05/11 10:36:07;;;;;;;5.83;2.90;;;;;;;19.46;37.88;100767.58;1831406;78;21053;-61
2022/05/11 10:38:42;;;;;;;7.08;2.92;;;;;;;19.41;37.26;100764.84;1832571;78;21042;-62
2022/05/11 10:42:03;;;;;;;7.25;2.90;;;;;;;19.34;37.50;100757.60;1831073;78;21043;-62
2022/05/11 10:45:13;;;;;;;4.58;2.60;;;;;;;19.32;38.89;100752.97;1825723;78;21715;-62
2022/05/11 10:48:13;;;;;;;8.98;2.92;;;;;;;19.76;38.08;100773.05;1830804;78;21039;-61
2022/05/11 10:51:02;;;;;;;5.70;3.33;;;;;;;20.12;37.07;100765.86;1830516;78;21028;-61
2022/05/11 10:53:55;;;;;;;6.65;2.70;;;;;;;19.87;36.59;100758.30;1830563;78;21067;-60
2022/05/11 10:56:48;;;;;;;8.25;3.35;;;;;;;19.86;37.13;100753.56;1830662;78;21066;-61
2022/05/11 10:59:24;;;;;;;5.85;2.80;;;;;;;20.21;37.99;100761.66;1830952;78;21460;-61
2022/05/11 11:02:22;;;;;;;8.38;3.10;;;;;;;20.34;36.57;100757.60;1795759;78;21508;-61
2022/05/11 11:05:12;;;;;;;7.62;2.77;;;;;;;20.43;37.07;100758.63;1798892;78;21492;-62
2022/05/11 11:07:59;;;;;;;9.23;2.90;;;;;;;20.35;37.10;100764.47;1778019;78;21024;-62
2022/05/11 11:10:49;;;;;;;7.65;3.17;;;;;;;20.49;36.44;100761.56;1796107;80;21528;-60
2022/05/11 11:13:40;;;;;;;9.75;3.50;;;;;;;20.66;36.66;100751.07;1830847;78;21004;-61
2022/05/11 11:16:12;;;;;;;5.10;3.10;;;;;;;20.36;35.81;100772.69;1831124;78;21028;-61
2022/05/11 11:18:44;;;;;;;10.25;3.10;;;;;;;19.94;35.94;100756.88;1831014;78;21047;-61
2022/05/11 11:21:13;;;;;;;4.70;2.80;;;;;;;20.23;35.94;100753.22;1830675;78;21016;-61
2022/05/11 11:23:49;;;;;;;7.20;2.60;;;;;;;20.30;35.59;100774.01;1831018;78;21019;-61
2022/05/11 11:26:43;;;;;;;6.33;3.40;;;;;;;20.10;35.56;100753.88;1831084;78;20996;-60
2022/05/11 11:29:18;;;;;;;11.25;2.98;;;;;;;19.90;35.28;100751.06;1830886;78;21016;-60
2022/05/11 11:32:09;;;;;;;5.72;3.02;;;;;;;20.27;36.05;100741.56;1831136;78;21528;-60
2022/05/11 11:34:46;;;;;;;6.72;3.40;;;;;;;20.38;36.04;100750.68;1830767;78;21114;-61
2022/05/11 11:37:33;;;;;;;5.72;3.20;;;;;;;20.24;34.45;100747.54;1831071;78;21028;-61
2022/05/11 11:40:21;;;;;;;6.47;3.12;;;;;;;20.57;35.46;100740.02;1830645;78;21082;-61
2022/05/11 11:42:49;;;;;;;5.33;3.02;;;;;;;20.55;35.36;100732.77;1831173;78;20980;-61
2022/05/11 11:45:31;;;;;;;8.88;3.10;;;;;;;20.74;35.65;100736.88;1830765;78;21024;-61
2022/05/11 11:48:20;;;;;;;5.90;3.00;;;;;;;20.31;34.66;100735.13;1831113;78;21010;-61
2022/05/11 11:50:59;;;;;;;4.37;2.62;;;;;;;20.80;34.83;100738.13;1831096;78;21042;-61
2022/05/11 11:53:43;;;;;;;5.40;2.95;;;;;;;21.22;35.39;100717.13;1831096;78;21027;-61
2022/05/11 11:56:35;;;;;;;9.03;4.10;;;;;;;21.24;34.50;100737.95;1811505;78;21003;-61
2022/05/11 11:59:07;;;;;;;7.08;3.70;;;;;;;21.13;34.98;100735.78;1801191;78;21532;-61
2022/05/11 12:01:39;;;;;;;6.10;3.40;;;;;;;21.05;33.77;100730.85;1830932;78;21055;-61
2022/05/11 12:04:27;;;;;;;6.47;3.22;;;;;;;20.80;34.36;100728.97;1831021;78;21012;-61
2022/05/11 12:15:31;;;;;;;11.18;3.35;;;;;;;21.17;33.78;100738.48;1831045;78;21035;-61
2022/05/11 12:18:00;;;;;;;10.32;3.90;;;;;;;21.58;34.95;100735.42;1830967;78;21507;-61
2022/05/11 12:20:43;;;;;;;9.03;3.85;;;;;;;21.69;34.02;100737.58;1831057;78;21003;-61
2022/05/11 12:23:21;;;;;;;5.80;3.37;;;;;;;21.39;33.85;100729.62;1831037;78;21028;-61